sensor_id;sensor_type;location;lat;lon;timestamp;pressure;altitude;pressure_sealevel;temperature;humidity
63088;BME280;49173;43.164;27.786;2023-04-28T00:01:26;100682.91;;;10.64;52.96
63088;BME280;49173;43.164;27.786;2023-04-28T00:03:52;100686.22;;;10.69;53.97
63088;BME280;49173;43.164;27.786;2023-04-28T00:06:18;100686.06;;;10.72;53.78
63088;BME280;49173;43.164;27.786;2023-04-28T00:08:44;100688.69;;;10.74;54.44
63088;BME280;49173;43.164;27.786;2023-04-28T00:11:10;100691.06;;;10.80;54.60
63088;BME280;49173;43.164;27.786;2023-04-28T00:13:36;100680.41;;;10.79;53.99
63088;BME280;49173;43.164;27.786;2023-04-28T00:16:02;100691.06;;;10.80;54.12
63088;BME280;49173;43.164;27.786;2023-04-28T00:18:28;100688.59;;;10.76;54.27
63088;BME280;49173;43.164;27.786;2023-04-28T00:20:55;100692.53;;;10.68;53.94
63088;BME280;49173;43.164;27.786;2023-04-28T00:23:21;100695.09;;;10.71;53.77
63088;BME280;49173;43.164;27.786;2023-04-28T00:25:54;100704.38;;;10.64;54.25
63088;BME280;49173;43.164;27.786;2023-04-28T00:28:20;100696.94;;;10.69;53.91
63088;BME280;49173;43.164;27.786;2023-04-28T00:30:46;100698.84;;;10.67;54.62
63088;BME280;49173;43.164;27.786;2023-04-28T00:33:12;100691.75;;;10.66;54.49
63088;BME280;49173;43.164;27.786;2023-04-28T00:35:39;100694.44;;;10.66;54.22
63088;BME280;49173;43.164;27.786;2023-04-28T00:38:06;100686.34;;;10.49;53.50
63088;BME280;49173;43.164;27.786;2023-04-28T00:40:33;100696.06;;;10.52;54.36
63088;BME280;49173;43.164;27.786;2023-04-28T00:42:59;100692.28;;;10.56;53.46
63088;BME280;49173;43.164;27.786;2023-04-28T00:45:25;100700.19;;;10.59;54.31
63088;BME280;49173;43.164;27.786;2023-04-28T00:47:51;100692.13;;;10.59;54.55
63088;BME280;49173;43.164;27.786;2023-04-28T00:50:17;100694.91;;;10.57;54.96
63088;BME280;49173;43.164;27.786;2023-04-28T00:52:43;100699.63;;;10.52;55.61
63088;BME280;49173;43.164;27.786;2023-04-28T00:55:09;100702.38;;;10.51;54.73
63088;BME280;49173;43.164;27.786;2023-04-28T00:57:35;100690.78;;;10.50;54.96
63088;BME280;49173;43.164;27.786;2023-04-28T01:00:02;100705.38;;;10.44;54.14
63088;BME280;49173;43.164;27.786;2023-04-28T01:02:28;100695.50;;;10.45;55.32
63088;BME280;49173;43.164;27.786;2023-04-28T01:04:58;100708.03;;;10.44;54.53
63088;BME280;49173;43.164;27.786;2023-04-28T01:07:24;100712.59;;;10.42;54.13
63088;BME280;49173;43.164;27.786;2023-04-28T01:09:50;100701.00;;;10.42;54.40
63088;BME280;49173;43.164;27.786;2023-04-28T01:12:16;100707.31;;;10.41;54.36
63088;BME280;49173;43.164;27.786;2023-04-28T01:14:42;100708.44;;;10.37;54.35
63088;BME280;49173;43.164;27.786;2023-04-28T01:17:08;100706.66;;;10.36;54.85
63088;BME280;49173;43.164;27.786;2023-04-28T01:19:35;100710.91;;;10.21;53.74
63088;BME280;49173;43.164;27.786;2023-04-28T01:22:01;100702.00;;;10.21;54.02
63088;BME280;49173;43.164;27.786;2023-04-28T01:24:27;100704.78;;;10.19;54.58
63088;BME280;49173;43.164;27.786;2023-04-28T01:26:52;100697.84;;;10.15;54.73
63088;BME280;49173;43.164;27.786;2023-04-28T01:29:18;100705.78;;;10.16;55.01
63088;BME280;49173;43.164;27.786;2023-04-28T01:31:44;100697.66;;;10.18;54.88
63088;BME280;49173;43.164;27.786;2023-04-28T01:34:10;100707.53;;;10.17;55.12
63088;BME280;49173;43.164;27.786;2023-04-28T01:36:36;100702.47;;;10.11;54.57
63088;BME280;49173;43.164;27.786;2023-04-28T01:39:02;100703.41;;;10.10;55.03
63088;BME280;49173;43.164;27.786;2023-04-28T01:41:28;100699.28;;;10.03;55.54
63088;BME280;49173;43.164;27.786;2023-04-28T01:43:54;100701.16;;;10.01;56.17
63088;BME280;49173;43.164;27.786;2023-04-28T01:46:20;100697.81;;;9.96;56.40
63088;BME280;49173;43.164;27.786;2023-04-28T01:48:46;100706.06;;;9.91;56.42
63088;BME280;49173;43.164;27.786;2023-04-28T01:51:12;100698.38;;;9.84;56.26
63088;BME280;49173;43.164;27.786;2023-04-28T01:53:38;100704.97;;;9.77;56.87
63088;BME280;49173;43.164;27.786;2023-04-28T01:56:03;100710.69;;;9.69;56.75
63088;BME280;49173;43.164;27.786;2023-04-28T01:58:29;100706.47;;;9.63;56.61
63088;BME280;49173;43.164;27.786;2023-04-28T02:00:55;100703.00;;;9.61;56.62
63088;BME280;49173;43.164;27.786;2023-04-28T02:03:21;100709.59;;;9.54;56.61
63088;BME280;49173;43.164;27.786;2023-04-28T02:05:47;100701.53;;;9.54;56.80
63088;BME280;49173;43.164;27.786;2023-04-28T02:08:13;100707.03;;;9.51;56.78
63088;BME280;49173;43.164;27.786;2023-04-28T02:10:38;100710.00;;;9.45;56.96
63088;BME280;49173;43.164;27.786;2023-04-28T02:13:04;100695.16;;;9.38;57.43
63088;BME280;49173;43.164;27.786;2023-04-28T02:15:30;100707.25;;;9.26;57.38
63088;BME280;49173;43.164;27.786;2023-04-28T02:17:56;100717.44;;;9.18;57.38
63088;BME280;49173;43.164;27.786;2023-04-28T02:20:21;100717.03;;;9.07;57.77
63088;BME280;49173;43.164;27.786;2023-04-28T02:22:47;100715.38;;;9.04;57.78
63088;BME280;49173;43.164;27.786;2023-04-28T02:25:13;100714.56;;;9.02;57.92
63088;BME280;49173;43.164;27.786;2023-04-28T02:27:39;100721.69;;;9.02;58.00
63088;BME280;49173;43.164;27.786;2023-04-28T02:30:06;100722.72;;;8.99;57.91
63088;BME280;49173;43.164;27.786;2023-04-28T02:32:32;100714.81;;;8.96;57.75
63088;BME280;49173;43.164;27.786;2023-04-28T02:34:58;100728.41;;;8.92;57.65
63088;BME280;49173;43.164;27.786;2023-04-28T02:37:24;100732.13;;;8.88;57.55
63088;BME280;49173;43.164;27.786;2023-04-28T02:39:50;100736.91;;;8.81;57.77
63088;BME280;49173;43.164;27.786;2023-04-28T02:42:16;100735.13;;;8.80;58.25
63088;BME280;49173;43.164;27.786;2023-04-28T02:44:42;100734.25;;;8.79;58.42
63088;BME280;49173;43.164;27.786;2023-04-28T02:47:07;100738.75;;;8.79;57.74
63088;BME280;49173;43.164;27.786;2023-04-28T02:49:33;100740.47;;;8.80;57.29
63088;BME280;49173;43.164;27.786;2023-04-28T02:51:59;100742.34;;;8.78;57.74
63088;BME280;49173;43.164;27.786;2023-04-28T02:54:25;100752.13;;;8.79;57.86
63088;BME280;49173;43.164;27.786;2023-04-28T02:56:54;100742.34;;;8.78;58.44
63088;BME280;49173;43.164;27.786;2023-04-28T02:59:22;100742.59;;;8.72;58.02
63088;BME280;49173;43.164;27.786;2023-04-28T03:01:48;100749.03;;;8.68;58.16
63088;BME280;49173;43.164;27.786;2023-04-28T03:04:14;100739.38;;;8.64;57.57
63088;BME280;49173;43.164;27.786;2023-04-28T03:06:41;100743.00;;;8.63;57.67
63088;BME280;49173;43.164;27.786;2023-04-28T03:09:08;100751.97;;;8.62;57.47
63088;BME280;49173;43.164;27.786;2023-04-28T03:11:34;100749.22;;;8.63;57.41
63088;BME280;49173;43.164;27.786;2023-04-28T03:14:00;100749.38;;;8.59;57.17
63088;BME280;49173;43.164;27.786;2023-04-28T03:16:26;100752.06;;;8.59;58.07
63088;BME280;49173;43.164;27.786;2023-04-28T03:18:52;100762.91;;;8.56;57.72
63088;BME280;49173;43.164;27.786;2023-04-28T03:21:17;100762.91;;;8.56;57.18
63088;BME280;49173;43.164;27.786;2023-04-28T03:23:43;100763.00;;;8.52;57.72
63088;BME280;49173;43.164;27.786;2023-04-28T03:26:09;100767.50;;;8.52;57.61
63088;BME280;49173;43.164;27.786;2023-04-28T03:28:35;100768.44;;;8.51;58.57
63088;BME280;49173;43.164;27.786;2023-04-28T03:31:01;100773.78;;;8.51;58.47
63088;BME280;49173;43.164;27.786;2023-04-28T03:33:27;100775.50;;;8.52;58.24
63088;BME280;49173;43.164;27.786;2023-04-28T03:35:55;100778.19;;;8.52;58.14
63088;BME280;49173;43.164;27.786;2023-04-28T03:38:20;100779.81;;;8.56;58.12
63088;BME280;49173;43.164;27.786;2023-04-28T03:40:47;100788.41;;;8.64;58.45
63088;BME280;49173;43.164;27.786;2023-04-28T03:43:13;100788.03;;;8.73;57.94
63088;BME280;49173;43.164;27.786;2023-04-28T03:45:39;100793.69;;;8.88;57.71
63088;BME280;49173;43.164;27.786;2023-04-28T03:48:06;100790.19;;;9.07;57.18
63088;BME280;49173;43.164;27.786;2023-04-28T03:50:32;100797.31;;;9.29;56.82
63088;BME280;49173;43.164;27.786;2023-04-28T03:52:58;100796.59;;;9.46;56.35
63088;BME280;49173;43.164;27.786;2023-04-28T03:55:23;100797.81;;;9.59;55.89
63088;BME280;49173;43.164;27.786;2023-04-28T03:57:51;100800.19;;;9.85;55.62
63088;BME280;49173;43.164;27.786;2023-04-28T04:00:17;100809.56;;;10.14;54.57
63088;BME280;49173;43.164;27.786;2023-04-28T04:02:43;100800.16;;;10.45;52.54
63088;BME280;49173;43.164;27.786;2023-04-28T04:05:09;100810.44;;;10.73;51.49
63088;BME280;49173;43.164;27.786;2023-04-28T04:07:35;100804.75;;;11.15;50.45
63088;BME280;49173;43.164;27.786;2023-04-28T04:10:01;100804.50;;;11.89;48.95
63088;BME280;49173;43.164;27.786;2023-04-28T04:12:27;100793.94;;;12.82;46.37
63088;BME280;49173;43.164;27.786;2023-04-28T04:14:52;100803.34;;;13.67;45.24
63088;BME280;49173;43.164;27.786;2023-04-28T04:17:18;100791.66;;;14.11;43.78
63088;BME280;49173;43.164;27.786;2023-04-28T04:19:44;100794.72;;;14.19;43.57
63088;BME280;49173;43.164;27.786;2023-04-28T04:22:09;100801.00;;;14.19;43.61
63088;BME280;49173;43.164;27.786;2023-04-28T04:24:35;100797.81;;;14.27;42.86
63088;BME280;49173;43.164;27.786;2023-04-28T04:27:01;100795.75;;;14.30;43.22
63088;BME280;49173;43.164;27.786;2023-04-28T04:29:27;100799.06;;;14.36;42.42
63088;BME280;49173;43.164;27.786;2023-04-28T04:31:52;100799.41;;;14.44;43.13
63088;BME280;49173;43.164;27.786;2023-04-28T04:34:18;100793.88;;;14.47;42.93
63088;BME280;49173;43.164;27.786;2023-04-28T04:36:44;100795.22;;;14.54;41.46
63088;BME280;49173;43.164;27.786;2023-04-28T04:39:09;100794.63;;;14.49;41.51
63088;BME280;49173;43.164;27.786;2023-04-28T04:41:35;100800.16;;;14.47;42.21
63088;BME280;49173;43.164;27.786;2023-04-28T04:44:01;100800.16;;;14.47;40.57
63088;BME280;49173;43.164;27.786;2023-04-28T04:46:28;100802.81;;;14.33;40.61
63088;BME280;49173;43.164;27.786;2023-04-28T04:48:55;100816.81;;;14.25;41.50
63088;BME280;49173;43.164;27.786;2023-04-28T04:51:21;100811.31;;;14.27;40.92
63088;BME280;49173;43.164;27.786;2023-04-28T04:53:47;100807.25;;;14.34;41.16
63088;BME280;49173;43.164;27.786;2023-04-28T04:56:13;100811.41;;;14.25;40.96
63088;BME280;49173;43.164;27.786;2023-04-28T04:58:42;100795.59;;;14.34;41.93
63088;BME280;49173;43.164;27.786;2023-04-28T05:01:11;100798.41;;;14.46;41.45
63088;BME280;49173;43.164;27.786;2023-04-28T05:03:36;100803.31;;;14.54;41.43
63088;BME280;49173;43.164;27.786;2023-04-28T05:06:02;100803.00;;;14.59;41.26
63088;BME280;49173;43.164;27.786;2023-04-28T05:08:28;100805.69;;;14.59;41.08
63088;BME280;49173;43.164;27.786;2023-04-28T05:10:54;100800.41;;;14.57;41.77
63088;BME280;49173;43.164;27.786;2023-04-28T05:13:20;100800.22;;;14.60;42.21
63088;BME280;49173;43.164;27.786;2023-04-28T05:15:46;100803.28;;;14.68;41.35
63088;BME280;49173;43.164;27.786;2023-04-28T05:18:11;100809.75;;;14.66;41.43
63088;BME280;49173;43.164;27.786;2023-04-28T05:20:38;100810.16;;;14.60;41.54
63088;BME280;49173;43.164;27.786;2023-04-28T05:23:05;100804.19;;;14.54;38.91
63088;BME280;49173;43.164;27.786;2023-04-28T05:25:31;100812.88;;;14.31;40.79
63088;BME280;49173;43.164;27.786;2023-04-28T05:27:57;100803.47;;;14.37;40.44
63088;BME280;49173;43.164;27.786;2023-04-28T05:30:23;100812.16;;;14.42;39.21
63088;BME280;49173;43.164;27.786;2023-04-28T05:32:48;100820.38;;;14.40;39.31
63088;BME280;49173;43.164;27.786;2023-04-28T05:35:14;100825.66;;;14.42;40.17
63088;BME280;49173;43.164;27.786;2023-04-28T05:37:40;100820.66;;;14.50;40.13
63088;BME280;49173;43.164;27.786;2023-04-28T05:40:08;100818.75;;;14.52;40.82
63088;BME280;49173;43.164;27.786;2023-04-28T05:42:34;100818.34;;;14.58;39.70
63088;BME280;49173;43.164;27.786;2023-04-28T05:45:01;100812.75;;;14.61;39.06
63088;BME280;49173;43.164;27.786;2023-04-28T05:47:27;100823.09;;;14.54;38.95
63088;BME280;49173;43.164;27.786;2023-04-28T05:49:54;100831.94;;;14.42;38.60
63088;BME280;49173;43.164;27.786;2023-04-28T05:52:20;100821.03;;;14.29;40.10
63088;BME280;49173;43.164;27.786;2023-04-28T05:54:46;100820.19;;;14.57;40.84
63088;BME280;49173;43.164;27.786;2023-04-28T05:57:11;100818.66;;;14.53;40.04
63088;BME280;49173;43.164;27.786;2023-04-28T05:59:37;100818.56;;;14.55;40.41
63088;BME280;49173;43.164;27.786;2023-04-28T06:02:03;100833.38;;;14.76;40.85
63088;BME280;49173;43.164;27.786;2023-04-28T06:04:28;100830.25;;;14.97;40.35
63088;BME280;49173;43.164;27.786;2023-04-28T06:06:55;100825.88;;;15.08;39.57
63088;BME280;49173;43.164;27.786;2023-04-28T06:09:20;100829.16;;;14.99;37.67
63088;BME280;49173;43.164;27.786;2023-04-28T06:11:46;100830.88;;;15.00;38.68
63088;BME280;49173;43.164;27.786;2023-04-28T06:14:12;100827.91;;;15.05;39.42
63088;BME280;49173;43.164;27.786;2023-04-28T06:16:38;100833.31;;;15.05;38.30
63088;BME280;49173;43.164;27.786;2023-04-28T06:19:03;100822.03;;;14.98;37.57
63088;BME280;49173;43.164;27.786;2023-04-28T06:21:29;100821.16;;;14.98;37.87
63088;BME280;49173;43.164;27.786;2023-04-28T06:23:56;100821.91;;;15.00;37.85
63088;BME280;49173;43.164;27.786;2023-04-28T06:26:23;100832.03;;;15.10;39.03
63088;BME280;49173;43.164;27.786;2023-04-28T06:28:49;100835.19;;;15.17;38.26
63088;BME280;49173;43.164;27.786;2023-04-28T06:31:15;100830.09;;;15.13;38.16
63088;BME280;49173;43.164;27.786;2023-04-28T06:33:41;100831.47;;;15.32;38.26
63088;BME280;49173;43.164;27.786;2023-04-28T06:36:07;100822.53;;;15.18;36.72
63088;BME280;49173;43.164;27.786;2023-04-28T06:38:33;100840.38;;;15.20;36.78
63088;BME280;49173;43.164;27.786;2023-04-28T06:40:59;100815.13;;;15.07;37.97
63088;BME280;49173;43.164;27.786;2023-04-28T06:43:25;100835.84;;;14.94;35.79
63088;BME280;49173;43.164;27.786;2023-04-28T06:45:51;100838.28;;;14.84;36.76
63088;BME280;49173;43.164;27.786;2023-04-28T06:48:17;100830.63;;;14.91;36.46
63088;BME280;49173;43.164;27.786;2023-04-28T06:50:42;100830.13;;;14.98;36.99
63088;BME280;49173;43.164;27.786;2023-04-28T06:53:08;100831.34;;;15.07;36.36
63088;BME280;49173;43.164;27.786;2023-04-28T06:55:34;100835.66;;;15.24;36.49
63088;BME280;49173;43.164;27.786;2023-04-28T06:58:00;100818.66;;;15.22;36.39
63088;BME280;49173;43.164;27.786;2023-04-28T07:00:26;100816.91;;;15.21;36.73
63088;BME280;49173;43.164;27.786;2023-04-28T07:02:51;100824.78;;;15.11;35.51
63088;BME280;49173;43.164;27.786;2023-04-28T07:05:17;100826.81;;;15.07;35.61
63088;BME280;49173;43.164;27.786;2023-04-28T07:07:44;100824.94;;;14.95;35.42
63088;BME280;49173;43.164;27.786;2023-04-28T07:10:10;100814.00;;;14.70;35.29
63088;BME280;49173;43.164;27.786;2023-04-28T07:12:36;100823.78;;;14.85;37.14
63088;BME280;49173;43.164;27.786;2023-04-28T07:15:01;100830.38;;;15.08;36.17
63088;BME280;49173;43.164;27.786;2023-04-28T07:17:27;100819.28;;;15.13;35.49
63088;BME280;49173;43.164;27.786;2023-04-28T07:19:53;100822.72;;;15.15;36.45
63088;BME280;49173;43.164;27.786;2023-04-28T07:22:19;100812.72;;;15.17;34.85
63088;BME280;49173;43.164;27.786;2023-04-28T07:24:44;100816.38;;;15.16;35.27
63088;BME280;49173;43.164;27.786;2023-04-28T07:27:10;100823.59;;;15.15;35.78
63088;BME280;49173;43.164;27.786;2023-04-28T07:29:37;100827.19;;;15.16;35.77
63088;BME280;49173;43.164;27.786;2023-04-28T07:32:03;100813.00;;;15.12;35.89
63088;BME280;49173;43.164;27.786;2023-04-28T07:34:35;100831.34;;;15.07;37.02
63088;BME280;49173;43.164;27.786;2023-04-28T07:37:02;100822.31;;;14.94;35.44
63088;BME280;49173;43.164;27.786;2023-04-28T07:39:30;100816.56;;;14.86;36.14
63088;BME280;49173;43.164;27.786;2023-04-28T07:41:57;100812.59;;;14.91;36.22
63088;BME280;49173;43.164;27.786;2023-04-28T07:44:23;100823.28;;;14.93;35.92
63088;BME280;49173;43.164;27.786;2023-04-28T07:46:49;100816.88;;;14.81;35.72
63088;BME280;49173;43.164;27.786;2023-04-28T07:49:15;100810.03;;;14.75;35.71
63088;BME280;49173;43.164;27.786;2023-04-28T07:51:41;100814.72;;;14.86;36.24
63088;BME280;49173;43.164;27.786;2023-04-28T07:54:07;100812.94;;;14.99;36.66
63088;BME280;49173;43.164;27.786;2023-04-28T07:56:33;100823.50;;;14.90;35.92
63088;BME280;49173;43.164;27.786;2023-04-28T07:58:59;100814.72;;;14.86;36.47
63088;BME280;49173;43.164;27.786;2023-04-28T08:01:25;100803.72;;;14.89;36.44
63088;BME280;49173;43.164;27.786;2023-04-28T08:03:51;100806.88;;;14.96;36.34
63088;BME280;49173;43.164;27.786;2023-04-28T08:06:18;100808.22;;;15.03;34.96
63088;BME280;49173;43.164;27.786;2023-04-28T08:08:44;100811.03;;;15.01;36.01
63088;BME280;49173;43.164;27.786;2023-04-28T08:11:10;100810.25;;;14.99;35.04
63088;BME280;49173;43.164;27.786;2023-04-28T08:13:36;100797.50;;;15.01;35.48
63088;BME280;49173;43.164;27.786;2023-04-28T08:16:02;100795.84;;;14.99;35.50
63088;BME280;49173;43.164;27.786;2023-04-28T08:18:28;100788.50;;;15.01;35.77
63088;BME280;49173;43.164;27.786;2023-04-28T08:20:54;100793.84;;;15.02;35.23
63088;BME280;49173;43.164;27.786;2023-04-28T08:23:20;100790.81;;;14.80;33.82
63088;BME280;49173;43.164;27.786;2023-04-28T08:25:45;100795.06;;;14.70;36.17
63088;BME280;49173;43.164;27.786;2023-04-28T08:28:12;100801.28;;;14.57;35.20
63088;BME280;49173;43.164;27.786;2023-04-28T08:30:38;100786.88;;;14.43;35.47
63088;BME280;49173;43.164;27.786;2023-04-28T08:33:04;100780.63;;;14.42;34.71
63088;BME280;49173;43.164;27.786;2023-04-28T08:35:30;100787.22;;;14.38;34.48
63088;BME280;49173;43.164;27.786;2023-04-28T08:37:57;100774.09;;;14.32;34.27
63088;BME280;49173;43.164;27.786;2023-04-28T08:40:23;100800.50;;;14.41;35.86
63088;BME280;49173;43.164;27.786;2023-04-28T08:42:50;100777.16;;;14.40;34.25
63088;BME280;49173;43.164;27.786;2023-04-28T08:45:16;100777.91;;;14.42;34.45
63088;BME280;49173;43.164;27.786;2023-04-28T08:47:42;100771.56;;;14.43;35.19
63088;BME280;49173;43.164;27.786;2023-04-28T08:50:13;100769.25;;;14.51;35.29
63088;BME280;49173;43.164;27.786;2023-04-28T08:52:40;100785.16;;;14.56;36.01
63088;BME280;49173;43.164;27.786;2023-04-28T08:55:10;100766.25;;;14.56;36.72
63088;BME280;49173;43.164;27.786;2023-04-28T09:00:07;100771.47;;;14.86;36.15
63088;BME280;49173;43.164;27.786;2023-04-28T09:02:33;100755.25;;;14.86;36.25
63088;BME280;49173;43.164;27.786;2023-04-28T09:04:59;100765.13;;;14.87;33.73
63088;BME280;49173;43.164;27.786;2023-04-28T09:07:24;100758.88;;;14.72;35.28
63088;BME280;49173;43.164;27.786;2023-04-28T09:10:17;100752.31;;;14.76;36.53
63088;BME280;49173;43.164;27.786;2023-04-28T09:12:44;100760.03;;;14.82;38.17
63088;BME280;49173;43.164;27.786;2023-04-28T09:15:31;100757.03;;;14.87;38.18
63088;BME280;49173;43.164;27.786;2023-04-28T09:17:57;100758.88;;;14.99;36.22
63088;BME280;49173;43.164;27.786;2023-04-28T09:20:27;100757.16;;;14.98;36.13
63088;BME280;49173;43.164;27.786;2023-04-28T09:22:54;100754.97;;;14.91;37.21
63088;BME280;49173;43.164;27.786;2023-04-28T09:25:22;100755.44;;;14.97;36.10
63088;BME280;49173;43.164;27.786;2023-04-28T09:27:51;100759.28;;;14.93;35.76
63088;BME280;49173;43.164;27.786;2023-04-28T09:30:17;100763.00;;;15.05;36.66
63088;BME280;49173;43.164;27.786;2023-04-28T09:32:43;100747.41;;;15.23;34.32
63088;BME280;49173;43.164;27.786;2023-04-28T09:35:09;100756.78;;;15.17;35.65
63088;BME280;49173;43.164;27.786;2023-04-28T09:37:35;100765.00;;;15.16;35.88
63088;BME280;49173;43.164;27.786;2023-04-28T09:40:09;100745.56;;;15.36;35.40
63088;BME280;49173;43.164;27.786;2023-04-28T09:42:42;100755.13;;;15.54;36.17
63088;BME280;49173;43.164;27.786;2023-04-28T09:45:13;100750.81;;;15.52;34.05
63088;BME280;49173;43.164;27.786;2023-04-28T09:47:40;100756.72;;;15.31;35.54
63088;BME280;49173;43.164;27.786;2023-04-28T09:50:08;100752.91;;;15.34;35.49
63088;BME280;49173;43.164;27.786;2023-04-28T09:52:37;100750.22;;;15.34;36.51
63088;BME280;49173;43.164;27.786;2023-04-28T09:55:05;100757.06;;;15.39;34.33
63088;BME280;49173;43.164;27.786;2023-04-28T09:57:32;100743.97;;;15.46;34.44
63088;BME280;49173;43.164;27.786;2023-04-28T09:59:59;100747.31;;;15.50;34.45
63088;BME280;49173;43.164;27.786;2023-04-28T10:02:25;100733.06;;;15.60;35.62
63088;BME280;49173;43.164;27.786;2023-04-28T10:04:51;100724.88;;;15.75;37.08
63088;BME280;49173;43.164;27.786;2023-04-28T10:07:20;100718.78;;;15.97;36.98
63088;BME280;49173;43.164;27.786;2023-04-28T10:09:47;100728.44;;;16.01;34.78
63088;BME280;49173;43.164;27.786;2023-04-28T10:12:19;100743.91;;;15.73;34.59
63088;BME280;49173;43.164;27.786;2023-04-28T10:14:46;100735.88;;;15.59;34.37
63088;BME280;49173;43.164;27.786;2023-04-28T10:17:16;100740.78;;;15.67;35.02
63088;BME280;49173;43.164;27.786;2023-04-28T10:19:46;100730.94;;;15.65;32.92
63088;BME280;49173;43.164;27.786;2023-04-28T10:22:37;100732.19;;;15.60;33.43
63088;BME280;49173;43.164;27.786;2023-04-28T10:27:41;100726.59;;;16.01;36.79
63088;BME280;49173;43.164;27.786;2023-04-28T10:30:12;100725.91;;;15.98;32.41
63088;BME280;49173;43.164;27.786;2023-04-28T10:32:39;100726.81;;;15.73;33.71
63088;BME280;49173;43.164;27.786;2023-04-28T10:38:06;100727.44;;;15.76;34.39
63088;BME280;49173;43.164;27.786;2023-04-28T10:40:34;100726.16;;;15.82;33.35
63088;BME280;49173;43.164;27.786;2023-04-28T10:43:01;100727.44;;;15.76;34.00
63088;BME280;49173;43.164;27.786;2023-04-28T10:48:51;100721.88;;;16.29;34.87
63088;BME280;49173;43.164;27.786;2023-04-28T10:58:44;100731.56;;;16.07;33.15
63088;BME280;49173;43.164;27.786;2023-04-28T11:01:31;100723.50;;;16.18;33.82
63088;BME280;49173;43.164;27.786;2023-04-28T11:04:08;100719.22;;;16.40;33.50
63088;BME280;49173;43.164;27.786;2023-04-28T11:06:39;100728.22;;;16.40;33.91
63088;BME280;49173;43.164;27.786;2023-04-28T11:16:52;100723.84;;;16.63;34.04
63088;BME280;49173;43.164;27.786;2023-04-28T11:19:20;100710.28;;;16.63;33.04
63088;BME280;49173;43.164;27.786;2023-04-28T11:21:47;100708.22;;;16.91;35.55
63088;BME280;49173;43.164;27.786;2023-04-28T11:24:13;100716.75;;;16.97;31.82
63088;BME280;49173;43.164;27.786;2023-04-28T11:26:40;100722.09;;;17.10;34.16
63088;BME280;49173;43.164;27.786;2023-04-28T11:29:06;100710.31;;;17.22;33.38
63088;BME280;49173;43.164;27.786;2023-04-28T11:31:32;100712.81;;;17.37;32.17
63088;BME280;49173;43.164;27.786;2023-04-28T11:34:02;100710.25;;;17.00;30.09
63088;BME280;49173;43.164;27.786;2023-04-28T11:36:34;100717.91;;;16.82;31.41
63088;BME280;49173;43.164;27.786;2023-04-28T11:39:04;100719.00;;;16.80;30.99
63088;BME280;49173;43.164;27.786;2023-04-28T11:41:34;100713.63;;;16.91;32.31
63088;BME280;49173;43.164;27.786;2023-04-28T11:44:18;100713.84;;;17.12;33.09
63088;BME280;49173;43.164;27.786;2023-04-28T11:46:45;100706.75;;;17.33;31.77
63088;BME280;49173;43.164;27.786;2023-04-28T11:49:15;100714.22;;;17.18;31.21
63088;BME280;49173;43.164;27.786;2023-04-28T11:51:41;100705.94;;;17.09;33.52
63088;BME280;49173;43.164;27.786;2023-04-28T11:54:09;100724.78;;;16.99;31.88
63088;BME280;49173;43.164;27.786;2023-04-28T11:56:42;100711.88;;;16.66;29.73
63088;BME280;49173;43.164;27.786;2023-04-28T11:59:11;100715.84;;;16.49;31.13
63088;BME280;49173;43.164;27.786;2023-04-28T12:01:48;100704.50;;;16.44;31.08
63088;BME280;49173;43.164;27.786;2023-04-28T12:07:05;100707.31;;;16.79;34.32
63088;BME280;49173;43.164;27.786;2023-04-28T12:09:33;100686.44;;;17.03;31.93
63088;BME280;49173;43.164;27.786;2023-04-28T12:12:04;100702.91;;;16.89;33.45
63088;BME280;49173;43.164;27.786;2023-04-28T12:17:42;100710.25;;;17.00;29.98
63088;BME280;49173;43.164;27.786;2023-04-28T12:20:10;100691.13;;;17.01;29.91
63088;BME280;49173;43.164;27.786;2023-04-28T12:23:02;100687.50;;;17.25;31.66
63088;BME280;49173;43.164;27.786;2023-04-28T12:25:28;100678.75;;;17.33;31.15
63088;BME280;49173;43.164;27.786;2023-04-28T12:28:04;100693.78;;;17.14;30.13
63088;BME280;49173;43.164;27.786;2023-04-28T12:30:33;100675.28;;;17.19;31.05
63088;BME280;49173;43.164;27.786;2023-04-28T12:33:00;100689.13;;;17.27;31.25
63088;BME280;49173;43.164;27.786;2023-04-28T12:35:27;100685.63;;;17.14;31.74
63088;BME280;49173;43.164;27.786;2023-04-28T12:37:54;100687.78;;;16.98;30.57
63088;BME280;49173;43.164;27.786;2023-04-28T12:40:21;100678.88;;;16.85;30.99
63088;BME280;49173;43.164;27.786;2023-04-28T12:42:48;100683.41;;;16.84;31.66
63088;BME280;49173;43.164;27.786;2023-04-28T12:45:15;100679.31;;;17.02;32.70
63088;BME280;49173;43.164;27.786;2023-04-28T12:47:41;100675.56;;;17.27;33.62
63088;BME280;49173;43.164;27.786;2023-04-28T12:50:08;100675.22;;;17.43;33.36
63088;BME280;49173;43.164;27.786;2023-04-28T12:52:34;100683.63;;;17.51;31.47
63088;BME280;49173;43.164;27.786;2023-04-28T12:55:02;100675.44;;;17.40;31.67
63088;BME280;49173;43.164;27.786;2023-04-28T12:57:28;100683.50;;;17.42;32.02
63088;BME280;49173;43.164;27.786;2023-04-28T12:59:54;100664.28;;;17.56;32.63
63088;BME280;49173;43.164;27.786;2023-04-28T13:02:22;100671.97;;;17.84;32.48
63088;BME280;49173;43.164;27.786;2023-04-28T13:04:47;100673.94;;;17.94;31.03
63088;BME280;49173;43.164;27.786;2023-04-28T13:07:14;100674.66;;;18.07;31.76
63088;BME280;49173;43.164;27.786;2023-04-28T13:09:41;100663.06;;;17.94;29.30
63088;BME280;49173;43.164;27.786;2023-04-28T13:12:08;100676.09;;;17.44;31.33
63088;BME280;49173;43.164;27.786;2023-04-28T13:14:34;100673.13;;;17.47;32.81